LPA weather

Gran Canaria Airport
Gran Canaria Island, Canary Islands, Spain

Public forecast

Using degrees Celsius for public forecast. Weather courtesy of forecast.io.

METAR (pilot weather report)

Retrieved 2018/02/26 03:00 UTC (16 minutes ago):

GCLP 260300Z 23005KT 9999 FEW035 15/09 Q1006 NOSIG

TAF (pilot weather forecast)

Retrieved 2018/02/26 03:29 UTC (0 seconds ago):

TAF GCLP 260200Z 2603/2703 VRB05KT 9999 FEW035 TX22/2612Z TN14/2606Z= TAF AMD KADW 260210Z 2602/2707 30006KT 1600 BR SCT006 OVC120 QNH3000INS BECMG 2604/2605 30006KT 8000 BR SCT020 OVC160 QNH3001INS BECMG 2605/2606 30006KT 8000 BR SCT030 BKN120 QNH3002INS BECMG 2606/2607 30006KT 9999 NSW SCT005 BKN180 QNH3003INS BECMG 2614/2615 33010G15KT 9999 BKN100 QNH3015INS BECMG 2622/2623 32009KT 9999 SKC QNH3032INS TX18/2621Z TN07/2612Z